sensor_id;sensor_type;location;lat;lon;timestamp;temperature;humidity
24448;DHT22;13348;50.984;5.822;2023-08-06T00:01:11;14.90;99.90
24448;DHT22;13348;50.984;5.822;2023-08-06T00:03:40;14.90;99.90
24448;DHT22;13348;50.984;5.822;2023-08-06T00:06:07;15.00;99.90
24448;DHT22;13348;50.984;5.822;2023-08-06T00:08:34;15.00;99.90
24448;DHT22;13348;50.984;5.822;2023-08-06T00:11:01;15.00;99.90
24448;DHT22;13348;50.984;5.822;2023-08-06T00:13:28;15.00;99.90
24448;DHT22;13348;50.984;5.822;2023-08-06T00:15:55;15.00;99.90
24448;DHT22;13348;50.984;5.822;2023-08-06T00:18:22;14.90;99.90
24448;DHT22;13348;50.984;5.822;2023-08-06T00:20:50;14.90;99.90
24448;DHT22;13348;50.984;5.822;2023-08-06T00:23:19;14.80;99.90
24448;DHT22;13348;50.984;5.822;2023-08-06T00:25:47;14.80;99.90
24448;DHT22;13348;50.984;5.822;2023-08-06T00:28:14;14.70;99.90
24448;DHT22;13348;50.984;5.822;2023-08-06T00:30:41;14.70;99.90
24448;DHT22;13348;50.984;5.822;2023-08-06T00:33:08;14.70;99.90
24448;DHT22;13348;50.984;5.822;2023-08-06T00:35:35;14.60;99.90
24448;DHT22;13348;50.984;5.822;2023-08-06T00:38:04;14.60;99.90
24448;DHT22;13348;50.984;5.822;2023-08-06T00:40:31;14.50;99.90
24448;DHT22;13348;50.984;5.822;2023-08-06T00:42:58;14.40;99.90
24448;DHT22;13348;50.984;5.822;2023-08-06T00:45:25;14.40;99.90
24448;DHT22;13348;50.984;5.822;2023-08-06T00:47:52;14.40;99.90
24448;DHT22;13348;50.984;5.822;2023-08-06T00:50:20;14.40;99.90
24448;DHT22;13348;50.984;5.822;2023-08-06T00:52:48;14.40;99.90
24448;DHT22;13348;50.984;5.822;2023-08-06T00:55:16;14.40;99.90
24448;DHT22;13348;50.984;5.822;2023-08-06T00:57:44;14.30;99.90
24448;DHT22;13348;50.984;5.822;2023-08-06T01:00:11;14.30;99.90
24448;DHT22;13348;50.984;5.822;2023-08-06T01:02:38;14.20;99.90
24448;DHT22;13348;50.984;5.822;2023-08-06T01:05:06;14.20;99.90
24448;DHT22;13348;50.984;5.822;2023-08-06T01:07:36;14.20;99.90
24448;DHT22;13348;50.984;5.822;2023-08-06T01:10:10;14.20;99.90
24448;DHT22;13348;50.984;5.822;2023-08-06T01:12:45;14.20;99.90
24448;DHT22;13348;50.984;5.822;2023-08-06T01:15:15;14.30;99.90
24448;DHT22;13348;50.984;5.822;2023-08-06T01:17:44;14.30;99.90
24448;DHT22;13348;50.984;5.822;2023-08-06T01:20:11;14.30;99.90
24448;DHT22;13348;50.984;5.822;2023-08-06T01:22:40;14.40;99.90
24448;DHT22;13348;50.984;5.822;2023-08-06T01:25:07;14.40;99.90
24448;DHT22;13348;50.984;5.822;2023-08-06T01:27:36;14.50;99.90
24448;DHT22;13348;50.984;5.822;2023-08-06T01:30:06;14.50;99.90
24448;DHT22;13348;50.984;5.822;2023-08-06T01:32:35;14.50;99.90
24448;DHT22;13348;50.984;5.822;2023-08-06T01:35:06;14.60;99.90
24448;DHT22;13348;50.984;5.822;2023-08-06T01:37:33;14.60;99.90
24448;DHT22;13348;50.984;5.822;2023-08-06T01:40:02;14.60;99.90
24448;DHT22;13348;50.984;5.822;2023-08-06T01:42:32;14.60;99.90
24448;DHT22;13348;50.984;5.822;2023-08-06T01:44:59;14.60;99.90
24448;DHT22;13348;50.984;5.822;2023-08-06T01:47:26;14.60;99.90
24448;DHT22;13348;50.984;5.822;2023-08-06T01:49:53;14.60;99.90
24448;DHT22;13348;50.984;5.822;2023-08-06T01:52:20;14.60;99.90
24448;DHT22;13348;50.984;5.822;2023-08-06T01:54:47;14.50;99.90
24448;DHT22;13348;50.984;5.822;2023-08-06T01:57:15;14.50;99.90
24448;DHT22;13348;50.984;5.822;2023-08-06T01:59:42;14.50;99.90
24448;DHT22;13348;50.984;5.822;2023-08-06T02:02:09;14.50;99.90
24448;DHT22;13348;50.984;5.822;2023-08-06T02:04:36;14.40;99.90
24448;DHT22;13348;50.984;5.822;2023-08-06T02:07:03;14.30;99.90
24448;DHT22;13348;50.984;5.822;2023-08-06T02:09:31;14.30;99.90
24448;DHT22;13348;50.984;5.822;2023-08-06T02:11:58;14.30;99.90
24448;DHT22;13348;50.984;5.822;2023-08-06T02:14:26;14.30;99.90
24448;DHT22;13348;50.984;5.822;2023-08-06T02:16:53;14.30;99.90
24448;DHT22;13348;50.984;5.822;2023-08-06T02:19:20;14.30;99.90
24448;DHT22;13348;50.984;5.822;2023-08-06T02:21:47;14.30;99.90
24448;DHT22;13348;50.984;5.822;2023-08-06T02:24:14;14.40;99.90
24448;DHT22;13348;50.984;5.822;2023-08-06T02:26:41;14.30;99.90
24448;DHT22;13348;50.984;5.822;2023-08-06T02:29:08;14.30;99.90
24448;DHT22;13348;50.984;5.822;2023-08-06T02:31:37;14.20;99.90
24448;DHT22;13348;50.984;5.822;2023-08-06T02:34:04;14.20;99.90
24448;DHT22;13348;50.984;5.822;2023-08-06T02:36:31;14.10;99.90
24448;DHT22;13348;50.984;5.822;2023-08-06T02:38:58;14.10;99.90
24448;DHT22;13348;50.984;5.822;2023-08-06T02:41:25;14.10;99.90
24448;DHT22;13348;50.984;5.822;2023-08-06T02:43:52;14.20;99.90
24448;DHT22;13348;50.984;5.822;2023-08-06T02:46:19;14.10;99.90
24448;DHT22;13348;50.984;5.822;2023-08-06T02:48:47;14.10;99.90
24448;DHT22;13348;50.984;5.822;2023-08-06T02:51:15;14.10;99.90
24448;DHT22;13348;50.984;5.822;2023-08-06T02:53:42;14.10;99.90
24448;DHT22;13348;50.984;5.822;2023-08-06T02:56:08;14.10;99.90
24448;DHT22;13348;50.984;5.822;2023-08-06T02:58:35;14.10;99.90
24448;DHT22;13348;50.984;5.822;2023-08-06T03:01:03;14.10;99.90
24448;DHT22;13348;50.984;5.822;2023-08-06T03:03:30;14.10;99.90
24448;DHT22;13348;50.984;5.822;2023-08-06T03:05:59;14.10;99.90
24448;DHT22;13348;50.984;5.822;2023-08-06T03:08:26;14.10;99.90
24448;DHT22;13348;50.984;5.822;2023-08-06T03:10:53;14.10;99.90
24448;DHT22;13348;50.984;5.822;2023-08-06T03:13:20;14.10;99.90
24448;DHT22;13348;50.984;5.822;2023-08-06T03:15:53;14.10;99.90
24448;DHT22;13348;50.984;5.822;2023-08-06T03:18:20;14.10;99.90
24448;DHT22;13348;50.984;5.822;2023-08-06T03:20:47;14.10;99.90
24448;DHT22;13348;50.984;5.822;2023-08-06T03:23:16;14.20;99.90
24448;DHT22;13348;50.984;5.822;2023-08-06T03:25:43;14.20;99.90
24448;DHT22;13348;50.984;5.822;2023-08-06T03:28:10;14.20;99.90
24448;DHT22;13348;50.984;5.822;2023-08-06T03:30:37;14.10;99.90
24448;DHT22;13348;50.984;5.822;2023-08-06T03:33:04;14.10;99.90
24448;DHT22;13348;50.984;5.822;2023-08-06T03:35:31;14.10;99.90
24448;DHT22;13348;50.984;5.822;2023-08-06T03:37:58;14.20;99.90
24448;DHT22;13348;50.984;5.822;2023-08-06T03:40:27;14.10;99.90
24448;DHT22;13348;50.984;5.822;2023-08-06T03:42:54;14.20;99.90
24448;DHT22;13348;50.984;5.822;2023-08-06T03:45:21;14.20;99.90
24448;DHT22;13348;50.984;5.822;2023-08-06T03:47:48;14.20;99.90
24448;DHT22;13348;50.984;5.822;2023-08-06T03:50:15;14.20;99.90
24448;DHT22;13348;50.984;5.822;2023-08-06T03:52:42;14.30;99.90
24448;DHT22;13348;50.984;5.822;2023-08-06T03:55:09;14.30;99.90
24448;DHT22;13348;50.984;5.822;2023-08-06T03:57:37;14.30;99.90
24448;DHT22;13348;50.984;5.822;2023-08-06T04:00:05;14.30;99.90
24448;DHT22;13348;50.984;5.822;2023-08-06T04:02:32;14.30;99.90
24448;DHT22;13348;50.984;5.822;2023-08-06T04:05:00;14.30;99.90
24448;DHT22;13348;50.984;5.822;2023-08-06T04:07:27;14.20;99.90
24448;DHT22;13348;50.984;5.822;2023-08-06T04:09:54;14.20;99.90
24448;DHT22;13348;50.984;5.822;2023-08-06T04:12:22;14.20;99.90
24448;DHT22;13348;50.984;5.822;2023-08-06T04:14:51;14.20;99.90
24448;DHT22;13348;50.984;5.822;2023-08-06T04:17:18;14.20;99.90
24448;DHT22;13348;50.984;5.822;2023-08-06T04:19:47;14.20;99.90
24448;DHT22;13348;50.984;5.822;2023-08-06T04:22:14;14.30;99.90
24448;DHT22;13348;50.984;5.822;2023-08-06T04:24:41;14.20;99.90
24448;DHT22;13348;50.984;5.822;2023-08-06T04:27:09;14.20;99.90
24448;DHT22;13348;50.984;5.822;2023-08-06T04:29:36;14.20;99.90
24448;DHT22;13348;50.984;5.822;2023-08-06T04:32:05;14.20;99.90
24448;DHT22;13348;50.984;5.822;2023-08-06T04:34:33;14.30;99.90
24448;DHT22;13348;50.984;5.822;2023-08-06T04:37:00;14.30;99.90
24448;DHT22;13348;50.984;5.822;2023-08-06T04:39:27;14.30;99.90
24448;DHT22;13348;50.984;5.822;2023-08-06T04:41:54;14.30;99.90
24448;DHT22;13348;50.984;5.822;2023-08-06T04:44:21;14.40;99.90
24448;DHT22;13348;50.984;5.822;2023-08-06T04:46:48;14.40;99.90
24448;DHT22;13348;50.984;5.822;2023-08-06T04:49:17;14.40;99.90
24448;DHT22;13348;50.984;5.822;2023-08-06T04:51:44;14.40;99.90
24448;DHT22;13348;50.984;5.822;2023-08-06T04:54:11;14.40;99.90
24448;DHT22;13348;50.984;5.822;2023-08-06T04:56:38;14.40;99.90
24448;DHT22;13348;50.984;5.822;2023-08-06T04:59:05;14.40;99.90
24448;DHT22;13348;50.984;5.822;2023-08-06T05:01:32;14.40;99.90
24448;DHT22;13348;50.984;5.822;2023-08-06T05:03:59;14.40;99.90
24448;DHT22;13348;50.984;5.822;2023-08-06T05:06:28;14.40;99.90
24448;DHT22;13348;50.984;5.822;2023-08-06T05:08:55;14.50;99.90
24448;DHT22;13348;50.984;5.822;2023-08-06T05:11:22;14.50;99.90
24448;DHT22;13348;50.984;5.822;2023-08-06T05:13:49;14.50;99.90
24448;DHT22;13348;50.984;5.822;2023-08-06T05:16:16;14.60;99.90
24448;DHT22;13348;50.984;5.822;2023-08-06T05:18:43;14.50;99.90
24448;DHT22;13348;50.984;5.822;2023-08-06T05:21:11;14.60;99.90
24448;DHT22;13348;50.984;5.822;2023-08-06T05:23:39;14.70;99.90
24448;DHT22;13348;50.984;5.822;2023-08-06T05:26:06;14.60;99.90
24448;DHT22;13348;50.984;5.822;2023-08-06T05:28:33;14.60;99.90
24448;DHT22;13348;50.984;5.822;2023-08-06T05:31:02;14.70;99.90
24448;DHT22;13348;50.984;5.822;2023-08-06T05:33:29;14.60;99.90
24448;DHT22;13348;50.984;5.822;2023-08-06T05:35:57;14.60;99.90
24448;DHT22;13348;50.984;5.822;2023-08-06T05:38:24;14.60;99.90
24448;DHT22;13348;50.984;5.822;2023-08-06T05:40:52;14.70;99.90
24448;DHT22;13348;50.984;5.822;2023-08-06T05:43:19;14.80;99.90
24448;DHT22;13348;50.984;5.822;2023-08-06T05:45:46;14.90;99.90
24448;DHT22;13348;50.984;5.822;2023-08-06T05:48:15;14.90;99.90
24448;DHT22;13348;50.984;5.822;2023-08-06T05:50:42;14.90;99.90
24448;DHT22;13348;50.984;5.822;2023-08-06T05:53:09;14.90;99.90
24448;DHT22;13348;50.984;5.822;2023-08-06T05:55:36;15.00;99.90
24448;DHT22;13348;50.984;5.822;2023-08-06T05:58:05;15.00;99.90
24448;DHT22;13348;50.984;5.822;2023-08-06T06:00:32;14.90;99.90
24448;DHT22;13348;50.984;5.822;2023-08-06T06:03:00;14.90;99.90
24448;DHT22;13348;50.984;5.822;2023-08-06T06:05:27;14.90;99.90
24448;DHT22;13348;50.984;5.822;2023-08-06T06:07:54;15.00;99.90
24448;DHT22;13348;50.984;5.822;2023-08-06T06:10:21;14.90;99.90
24448;DHT22;13348;50.984;5.822;2023-08-06T06:12:48;14.90;99.90
24448;DHT22;13348;50.984;5.822;2023-08-06T06:15:16;14.90;99.90
24448;DHT22;13348;50.984;5.822;2023-08-06T06:17:44;14.90;99.90
24448;DHT22;13348;50.984;5.822;2023-08-06T06:20:11;14.90;99.90
24448;DHT22;13348;50.984;5.822;2023-08-06T06:22:38;14.90;99.90
24448;DHT22;13348;50.984;5.822;2023-08-06T06:25:05;14.90;99.90
24448;DHT22;13348;50.984;5.822;2023-08-06T06:27:32;14.90;99.90
24448;DHT22;13348;50.984;5.822;2023-08-06T06:29:59;14.90;99.90
24448;DHT22;13348;50.984;5.822;2023-08-06T06:32:28;14.90;99.90
24448;DHT22;13348;50.984;5.822;2023-08-06T06:34:55;14.80;99.90
24448;DHT22;13348;50.984;5.822;2023-08-06T06:37:22;14.80;99.90
24448;DHT22;13348;50.984;5.822;2023-08-06T06:39:49;14.90;99.90
24448;DHT22;13348;50.984;5.822;2023-08-06T06:42:16;14.90;99.90
24448;DHT22;13348;50.984;5.822;2023-08-06T06:44:43;14.90;99.90
24448;DHT22;13348;50.984;5.822;2023-08-06T06:47:10;14.80;99.90
24448;DHT22;13348;50.984;5.822;2023-08-06T06:49:39;14.80;99.90
24448;DHT22;13348;50.984;5.822;2023-08-06T06:52:06;14.80;99.90
24448;DHT22;13348;50.984;5.822;2023-08-06T06:54:33;14.90;99.90
24448;DHT22;13348;50.984;5.822;2023-08-06T06:57:00;14.90;99.90
24448;DHT22;13348;50.984;5.822;2023-08-06T06:59:27;14.90;99.90
24448;DHT22;13348;50.984;5.822;2023-08-06T07:01:54;14.90;99.90
24448;DHT22;13348;50.984;5.822;2023-08-06T07:04:21;14.90;99.90
24448;DHT22;13348;50.984;5.822;2023-08-06T07:06:50;14.90;99.90
24448;DHT22;13348;50.984;5.822;2023-08-06T07:09:17;15.10;99.90
24448;DHT22;13348;50.984;5.822;2023-08-06T07:11:44;15.10;99.90
24448;DHT22;13348;50.984;5.822;2023-08-06T07:14:11;15.10;99.90
24448;DHT22;13348;50.984;5.822;2023-08-06T07:16:39;15.00;99.90
24448;DHT22;13348;50.984;5.822;2023-08-06T07:19:06;15.00;99.90
24448;DHT22;13348;50.984;5.822;2023-08-06T07:21:33;15.00;99.90
24448;DHT22;13348;50.984;5.822;2023-08-06T07:24:02;15.00;99.90
24448;DHT22;13348;50.984;5.822;2023-08-06T07:26:29;15.10;99.90
24448;DHT22;13348;50.984;5.822;2023-08-06T07:28:56;15.10;99.90
24448;DHT22;13348;50.984;5.822;2023-08-06T07:31:23;15.00;99.90
24448;DHT22;13348;50.984;5.822;2023-08-06T07:33:51;14.60;99.90
24448;DHT22;13348;50.984;5.822;2023-08-06T07:36:18;14.30;99.90
24448;DHT22;13348;50.984;5.822;2023-08-06T07:38:45;14.10;99.90
24448;DHT22;13348;50.984;5.822;2023-08-06T07:41:13;14.10;99.90
24448;DHT22;13348;50.984;5.822;2023-08-06T07:43:40;14.00;99.90
24448;DHT22;13348;50.984;5.822;2023-08-06T07:46:08;14.00;99.90
24448;DHT22;13348;50.984;5.822;2023-08-06T07:48:35;13.90;99.90
24448;DHT22;13348;50.984;5.822;2023-08-06T07:51:02;13.90;99.90
24448;DHT22;13348;50.984;5.822;2023-08-06T07:53:29;13.90;99.90
24448;DHT22;13348;50.984;5.822;2023-08-06T07:55:56;14.00;99.90
24448;DHT22;13348;50.984;5.822;2023-08-06T07:58:25;14.00;99.90
24448;DHT22;13348;50.984;5.822;2023-08-06T08:00:52;14.00;99.90
24448;DHT22;13348;50.984;5.822;2023-08-06T08:03:19;14.00;99.90
24448;DHT22;13348;50.984;5.822;2023-08-06T08:05:46;14.10;99.90
24448;DHT22;13348;50.984;5.822;2023-08-06T08:08:13;14.00;99.90
24448;DHT22;13348;50.984;5.822;2023-08-06T08:10:41;14.00;99.90
24448;DHT22;13348;50.984;5.822;2023-08-06T08:13:08;14.00;99.90
24448;DHT22;13348;50.984;5.822;2023-08-06T08:15:37;14.00;99.90
24448;DHT22;13348;50.984;5.822;2023-08-06T08:18:04;14.00;99.90
24448;DHT22;13348;50.984;5.822;2023-08-06T08:20:31;14.00;99.90
24448;DHT22;13348;50.984;5.822;2023-08-06T08:23:00;14.00;99.90
24448;DHT22;13348;50.984;5.822;2023-08-06T08:25:27;14.00;99.90
24448;DHT22;13348;50.984;5.822;2023-08-06T08:27:55;14.00;99.90
24448;DHT22;13348;50.984;5.822;2023-08-06T08:30:22;14.10;99.90
24448;DHT22;13348;50.984;5.822;2023-08-06T08:32:51;14.10;99.90
24448;DHT22;13348;50.984;5.822;2023-08-06T08:35:19;14.10;99.90
24448;DHT22;13348;50.984;5.822;2023-08-06T08:37:46;14.10;99.90
24448;DHT22;13348;50.984;5.822;2023-08-06T08:40:13;14.10;99.90
24448;DHT22;13348;50.984;5.822;2023-08-06T08:42:41;14.20;99.90
24448;DHT22;13348;50.984;5.822;2023-08-06T08:45:10;14.20;99.90
24448;DHT22;13348;50.984;5.822;2023-08-06T08:47:39;14.30;99.90
24448;DHT22;13348;50.984;5.822;2023-08-06T08:50:08;14.20;99.90
24448;DHT22;13348;50.984;5.822;2023-08-06T08:52:35;14.20;99.90
24448;DHT22;13348;50.984;5.822;2023-08-06T08:55:03;14.20;99.90
24448;DHT22;13348;50.984;5.822;2023-08-06T08:57:30;14.20;99.90
24448;DHT22;13348;50.984;5.822;2023-08-06T08:59:57;14.10;99.90
24448;DHT22;13348;50.984;5.822;2023-08-06T09:02:24;14.20;99.90
24448;DHT22;13348;50.984;5.822;2023-08-06T09:04:52;14.20;99.90
24448;DHT22;13348;50.984;5.822;2023-08-06T09:07:22;14.20;99.90
24448;DHT22;13348;50.984;5.822;2023-08-06T09:09:49;14.20;99.90
24448;DHT22;13348;50.984;5.822;2023-08-06T09:12:19;14.30;99.90
24448;DHT22;13348;50.984;5.822;2023-08-06T09:14:46;14.50;99.90
24448;DHT22;13348;50.984;5.822;2023-08-06T09:17:12;14.50;99.90
24448;DHT22;13348;50.984;5.822;2023-08-06T09:19:41;14.50;99.90
24448;DHT22;13348;50.984;5.822;2023-08-06T22:54:52;12.70;99.90
24448;DHT22;13348;50.984;5.822;2023-08-06T22:57:19;12.70;99.90
24448;DHT22;13348;50.984;5.822;2023-08-06T22:59:46;12.70;99.90
24448;DHT22;13348;50.984;5.822;2023-08-06T23:02:13;12.70;99.90
24448;DHT22;13348;50.984;5.822;2023-08-06T23:04:41;12.70;99.90
24448;DHT22;13348;50.984;5.822;2023-08-06T23:07:08;12.70;99.90
24448;DHT22;13348;50.984;5.822;2023-08-06T23:09:35;12.70;99.90
24448;DHT22;13348;50.984;5.822;2023-08-06T23:12:04;12.70;99.90
24448;DHT22;13348;50.984;5.822;2023-08-06T23:14:31;12.70;99.90
24448;DHT22;13348;50.984;5.822;2023-08-06T23:16:58;12.70;99.90
24448;DHT22;13348;50.984;5.822;2023-08-06T23:19:25;12.70;99.90
24448;DHT22;13348;50.984;5.822;2023-08-06T23:21:52;12.70;99.90
24448;DHT22;13348;50.984;5.822;2023-08-06T23:24:19;12.70;99.90
24448;DHT22;13348;50.984;5.822;2023-08-06T23:26:51;12.70;99.90
24448;DHT22;13348;50.984;5.822;2023-08-06T23:29:20;12.80;99.90
24448;DHT22;13348;50.984;5.822;2023-08-06T23:31:47;12.90;99.90
24448;DHT22;13348;50.984;5.822;2023-08-06T23:34:14;12.80;99.90
24448;DHT22;13348;50.984;5.822;2023-08-06T23:36:41;12.80;99.90
24448;DHT22;13348;50.984;5.822;2023-08-06T23:39:08;12.70;99.90
24448;DHT22;13348;50.984;5.822;2023-08-06T23:41:37;12.70;99.90
24448;DHT22;13348;50.984;5.822;2023-08-06T23:44:04;12.80;99.90
24448;DHT22;13348;50.984;5.822;2023-08-06T23:46:33;12.80;99.90
24448;DHT22;13348;50.984;5.822;2023-08-06T23:49:01;12.80;99.90
24448;DHT22;13348;50.984;5.822;2023-08-06T23:51:29;12.90;99.90
24448;DHT22;13348;50.984;5.822;2023-08-06T23:53:56;12.90;99.90
24448;DHT22;13348;50.984;5.822;2023-08-06T23:56:23;12.90;99.90
24448;DHT22;13348;50.984;5.822;2023-08-06T23:58:50;12.90;99.90
